KABY/ABY METAR and TAF weather

Enter ICAO airport designator
Station Type Date Time Source
KABY METAR 2022/01/28 23:53 UTC NOAA

KABY 282353Z 30007KT 10SM CLR 10/M01 A3001 RMK AO2 SLP164 T01001011 10139 20100 53011


Station Type Date Time Source
KABY Decoded METAR 2022/01/28 23:53 UTC NOAA

ALBANY SOUTHWEST GEORGIA, GA, United States (KABY) 31-32N 084-12W 58M
Jan 28, 2022 - 06:53 PM EST / 2022.01.28 2353 UTC
Wind: from the WNW (300 degrees) at 8 MPH (7 KT):0
Visibility: 10 mile(s):0
Sky conditions: clear
Temperature: 50.0 F (10.0 C)
Dew Point: 30.0 F (-1.1 C)
Relative Humidity: 45%
Pressure (altimeter): 30.01 in. Hg (1016 hPa)
Pressure tendency: 0.03 inches (1.1 hPa) higher than three hours ago
ob: KABY 282353Z 30007KT 10SM CLR 10/M01 A3001 RMK AO2 SLP164 T01001011 10139 20100 53011
cycle: 0

Station Type Date Time Source
KABY TAF 2022/01/28 18:22 UTC NOAA

TAF KABY 281720Z 2818/2918 00000KT P6SM BKN080
FM282000 29009KT P6SM OVC070
FM290300 32010G15KT P6SM SKC

Example: see airport list